sensor_id;sensor_type;location;lat;lon;timestamp;pressure;altitude;pressure_sealevel;temperature;humidity
41945;BME280;63122;52.424;13.458;2023-03-25T00:01:22;99716.34;;;8.46;100.00
41945;BME280;63122;52.424;13.458;2023-03-25T00:03:20;99716.53;;;8.44;100.00
41945;BME280;63122;52.424;13.458;2023-03-25T00:05:19;99719.47;;;8.41;100.00
41945;BME280;63122;52.424;13.458;2023-03-25T00:07:14;99716.00;;;8.41;100.00
41945;BME280;63122;52.424;13.458;2023-03-25T00:09:10;99719.81;;;8.38;100.00
41945;BME280;63122;52.424;13.458;2023-03-25T00:11:06;99723.25;;;8.39;100.00
41945;BME280;63122;52.424;13.458;2023-03-25T00:13:04;99720.28;;;8.42;100.00
41945;BME280;63122;52.424;13.458;2023-03-25T00:14:59;99724.41;;;8.44;100.00
41945;BME280;63122;52.424;13.458;2023-03-25T00:16:55;99723.91;;;8.41;100.00
41945;BME280;63122;52.424;13.458;2023-03-25T00:18:52;99707.97;;;8.42;100.00
41945;BME280;63122;52.424;13.458;2023-03-25T00:20:52;99704.84;;;8.47;100.00
41945;BME280;63122;52.424;13.458;2023-03-25T00:22:47;99702.22;;;8.39;100.00
41945;BME280;63122;52.424;13.458;2023-03-25T00:24:42;99704.03;;;8.38;100.00
41945;BME280;63122;52.424;13.458;2023-03-25T00:26:38;99698.28;;;8.43;100.00
41945;BME280;63122;52.424;13.458;2023-03-25T00:28:37;99699.91;;;8.44;100.00
41945;BME280;63122;52.424;13.458;2023-03-25T00:30:33;99701.56;;;8.36;100.00
41945;BME280;63122;52.424;13.458;2023-03-25T00:32:28;99706.16;;;8.34;100.00
41945;BME280;63122;52.424;13.458;2023-03-25T00:34:23;99706.31;;;8.33;100.00
41945;BME280;63122;52.424;13.458;2023-03-25T00:36:19;99709.75;;;8.33;100.00
41945;BME280;63122;52.424;13.458;2023-03-25T00:38:14;99709.91;;;8.32;100.00
41945;BME280;63122;52.424;13.458;2023-03-25T00:40:09;99710.44;;;8.35;100.00
41945;BME280;63122;52.424;13.458;2023-03-25T00:42:05;99706.50;;;8.40;100.00
41945;BME280;63122;52.424;13.458;2023-03-25T00:44:05;99714.84;;;8.35;100.00
41945;BME280;63122;52.424;13.458;2023-03-25T00:46:00;99714.34;;;8.31;100.00
41945;BME280;63122;52.424;13.458;2023-03-25T00:47:55;99716.50;;;8.36;100.00
41945;BME280;63122;52.424;13.458;2023-03-25T00:49:51;99721.91;;;8.34;100.00
41945;BME280;63122;52.424;13.458;2023-03-25T00:51:47;99714.56;;;8.38;100.00
41945;BME280;63122;52.424;13.458;2023-03-25T00:53:44;99720.63;;;8.39;100.00
41945;BME280;63122;52.424;13.458;2023-03-25T00:55:40;99720.94;;;8.35;100.00
41945;BME280;63122;52.424;13.458;2023-03-25T00:57:35;99714.03;;;8.34;100.00
41945;BME280;63122;52.424;13.458;2023-03-25T00:59:33;99725.03;;;8.30;100.00
41945;BME280;63122;52.424;13.458;2023-03-25T01:01:28;99721.72;;;8.28;100.00
41945;BME280;63122;52.424;13.458;2023-03-25T01:03:25;99731.78;;;8.32;100.00
41945;BME280;63122;52.424;13.458;2023-03-25T01:05:21;99721.41;;;8.31;100.00
41945;BME280;63122;52.424;13.458;2023-03-25T01:07:17;99722.72;;;8.27;100.00
41945;BME280;63122;52.424;13.458;2023-03-25T01:09:13;99725.81;;;8.22;100.00
41945;BME280;63122;52.424;13.458;2023-03-25T01:11:18;99723.81;;;8.16;100.00
41945;BME280;63122;52.424;13.458;2023-03-25T01:13:13;99721.72;;;8.19;100.00
41945;BME280;63122;52.424;13.458;2023-03-25T01:15:12;99726.63;;;8.14;100.00
41945;BME280;63122;52.424;13.458;2023-03-25T01:17:08;99722.50;;;8.12;100.00
41945;BME280;63122;52.424;13.458;2023-03-25T01:19:04;99725.13;;;8.12;100.00
41945;BME280;63122;52.424;13.458;2023-03-25T01:20:59;99715.59;;;8.11;100.00
41945;BME280;63122;52.424;13.458;2023-03-25T01:22:55;99711.31;;;8.10;100.00
41945;BME280;63122;52.424;13.458;2023-03-25T01:24:51;99705.72;;;8.04;100.00
41945;BME280;63122;52.424;13.458;2023-03-25T01:26:48;99706.22;;;8.08;100.00
41945;BME280;63122;52.424;13.458;2023-03-25T01:28:45;99711.00;;;8.04;100.00
41945;BME280;63122;52.424;13.458;2023-03-25T01:30:43;99698.00;;;8.03;100.00
41945;BME280;63122;52.424;13.458;2023-03-25T01:32:38;99692.59;;;7.96;100.00
41945;BME280;63122;52.424;13.458;2023-03-25T01:34:34;99701.72;;;7.92;100.00
41945;BME280;63122;52.424;13.458;2023-03-25T01:36:30;99692.38;;;7.89;100.00
41945;BME280;63122;52.424;13.458;2023-03-25T01:38:29;99682.38;;;7.93;100.00
41945;BME280;63122;52.424;13.458;2023-03-25T01:40:27;99684.19;;;7.92;100.00
41945;BME280;63122;52.424;13.458;2023-03-25T01:42:25;99683.53;;;7.99;100.00
41945;BME280;63122;52.424;13.458;2023-03-25T01:46:53;99677.13;;;7.93;100.00
41945;BME280;63122;52.424;13.458;2023-03-25T01:48:50;99672.19;;;7.90;100.00
41945;BME280;63122;52.424;13.458;2023-03-25T01:50:51;99677.44;;;7.90;100.00
41945;BME280;63122;52.424;13.458;2023-03-25T01:52:49;99680.06;;;7.90;100.00
41945;BME280;63122;52.424;13.458;2023-03-25T01:54:47;99680.69;;;7.84;100.00
41945;BME280;63122;52.424;13.458;2023-03-25T01:56:47;99678.72;;;7.86;100.00
41945;BME280;63122;52.424;13.458;2023-03-25T01:58:45;99681.34;;;7.86;100.00
41945;BME280;63122;52.424;13.458;2023-03-25T02:00:43;99684.97;;;7.85;100.00
41945;BME280;63122;52.424;13.458;2023-03-25T02:02:46;99676.28;;;7.84;100.00
41945;BME280;63122;52.424;13.458;2023-03-25T02:04:49;99675.31;;;7.85;100.00
41945;BME280;63122;52.424;13.458;2023-03-25T02:06:51;99668.88;;;7.88;100.00
41945;BME280;63122;52.424;13.458;2023-03-25T02:08:49;99665.13;;;7.90;100.00
41945;BME280;63122;52.424;13.458;2023-03-25T02:10:51;99666.59;;;7.93;100.00
41945;BME280;63122;52.424;13.458;2023-03-25T02:12:47;99664.47;;;7.88;100.00
41945;BME280;63122;52.424;13.458;2023-03-25T02:14:42;99654.13;;;7.95;100.00
41945;BME280;63122;52.424;13.458;2023-03-25T02:16:45;99656.63;;;7.97;100.00
41945;BME280;63122;52.424;13.458;2023-03-25T02:18:56;99649.72;;;7.96;100.00
41945;BME280;63122;52.424;13.458;2023-03-25T02:23:53;99643.34;;;7.98;100.00
41945;BME280;63122;52.424;13.458;2023-03-25T02:26:27;99638.22;;;7.97;100.00
41945;BME280;63122;52.424;13.458;2023-03-25T02:28:37;99637.09;;;7.99;100.00
41945;BME280;63122;52.424;13.458;2023-03-25T02:30:49;99636.44;;;7.97;100.00
41945;BME280;63122;52.424;13.458;2023-03-25T02:33:09;99638.09;;;7.98;100.00
41945;BME280;63122;52.424;13.458;2023-03-25T02:35:27;99627.41;;;8.00;100.00
41945;BME280;63122;52.424;13.458;2023-03-25T02:40:03;99624.97;;;8.06;100.00
41945;BME280;63122;52.424;13.458;2023-03-25T02:42:06;99624.31;;;8.04;100.00
41945;BME280;63122;52.424;13.458;2023-03-25T02:44:08;99621.50;;;8.06;100.00
41945;BME280;63122;52.424;13.458;2023-03-25T02:46:09;99624.31;;;8.04;100.00
41945;BME280;63122;52.424;13.458;2023-03-25T02:48:09;99617.09;;;8.06;100.00
41945;BME280;63122;52.424;13.458;2023-03-25T02:50:08;99618.88;;;8.06;100.00
41945;BME280;63122;52.424;13.458;2023-03-25T02:52:08;99618.72;;;8.07;100.00
41945;BME280;63122;52.424;13.458;2023-03-25T02:54:07;99608.22;;;8.07;100.00
41945;BME280;63122;52.424;13.458;2023-03-25T02:56:09;99617.59;;;8.10;100.00
41945;BME280;63122;52.424;13.458;2023-03-25T02:58:10;99612.50;;;8.09;100.00
41945;BME280;63122;52.424;13.458;2023-03-25T03:00:07;99611.66;;;8.08;100.00
41945;BME280;63122;52.424;13.458;2023-03-25T03:02:08;99617.88;;;8.07;100.00
41945;BME280;63122;52.424;13.458;2023-03-25T03:04:04;99605.28;;;8.11;100.00
41945;BME280;63122;52.424;13.458;2023-03-25T03:06:01;99610.53;;;8.11;100.00
41945;BME280;63122;52.424;13.458;2023-03-25T03:08:09;99604.63;;;8.09;100.00
41945;BME280;63122;52.424;13.458;2023-03-25T03:10:15;99601.00;;;8.10;100.00
41945;BME280;63122;52.424;13.458;2023-03-25T03:12:23;99602.97;;;8.07;100.00
41945;BME280;63122;52.424;13.458;2023-03-25T03:14:42;99601.84;;;8.10;100.00
41945;BME280;63122;52.424;13.458;2023-03-25T03:16:47;99600.16;;;8.09;100.00
41945;BME280;63122;52.424;13.458;2023-03-25T03:18:50;99598.06;;;8.13;100.00
41945;BME280;63122;52.424;13.458;2023-03-25T03:20:54;99614.47;;;8.15;100.00
41945;BME280;63122;52.424;13.458;2023-03-25T03:22:55;99598.22;;;8.11;100.00
41945;BME280;63122;52.424;13.458;2023-03-25T03:24:58;99605.13;;;8.12;100.00
41945;BME280;63122;52.424;13.458;2023-03-25T03:26:58;99617.28;;;8.13;100.00
41945;BME280;63122;52.424;13.458;2023-03-25T03:29:08;99611.19;;;8.13;100.00
41945;BME280;63122;52.424;13.458;2023-03-25T03:31:09;99611.00;;;8.06;100.00
41945;BME280;63122;52.424;13.458;2023-03-25T03:33:30;99613.47;;;8.07;100.00
41945;BME280;63122;52.424;13.458;2023-03-25T03:35:30;99618.41;;;8.02;100.00
41945;BME280;63122;52.424;13.458;2023-03-25T03:37:32;99628.06;;;8.02;100.00
41945;BME280;63122;52.424;13.458;2023-03-25T03:39:31;99630.53;;;8.03;100.00
41945;BME280;63122;52.424;13.458;2023-03-25T03:41:29;99630.38;;;8.05;100.00
41945;BME280;63122;52.424;13.458;2023-03-25T03:43:32;99627.91;;;8.03;100.00
41945;BME280;63122;52.424;13.458;2023-03-25T03:45:34;99628.91;;;8.02;100.00
41945;BME280;63122;52.424;13.458;2023-03-25T03:47:33;99628.56;;;8.05;100.00
41945;BME280;63122;52.424;13.458;2023-03-25T03:49:35;99639.41;;;8.02;100.00
41945;BME280;63122;52.424;13.458;2023-03-25T03:51:36;99634.28;;;7.92;100.00
41945;BME280;63122;52.424;13.458;2023-03-25T03:53:35;99645.75;;;7.83;100.00
41945;BME280;63122;52.424;13.458;2023-03-25T03:55:35;99645.88;;;7.73;100.00
41945;BME280;63122;52.424;13.458;2023-03-25T03:57:34;99634.84;;;7.70;100.00
41945;BME280;63122;52.424;13.458;2023-03-25T03:59:37;99635.31;;;7.65;100.00
41945;BME280;63122;52.424;13.458;2023-03-25T04:01:43;99626.13;;;7.61;100.00
41945;BME280;63122;52.424;13.458;2023-03-25T04:03:43;99634.00;;;7.61;100.00
41945;BME280;63122;52.424;13.458;2023-03-25T04:05:43;99633.34;;;7.67;100.00
41945;BME280;63122;52.424;13.458;2023-03-25T04:07:46;99633.53;;;7.66;100.00
41945;BME280;63122;52.424;13.458;2023-03-25T04:09:52;99627.16;;;7.68;100.00
41945;BME280;63122;52.424;13.458;2023-03-25T04:11:52;99634.53;;;7.73;100.00
41945;BME280;63122;52.424;13.458;2023-03-25T04:13:51;99631.25;;;7.71;100.00
41945;BME280;63122;52.424;13.458;2023-03-25T04:15:48;99635.69;;;7.70;100.00
41945;BME280;63122;52.424;13.458;2023-03-25T04:17:47;99638.81;;;7.74;100.00
41945;BME280;63122;52.424;13.458;2023-03-25T04:19:42;99641.59;;;7.72;100.00
41945;BME280;63122;52.424;13.458;2023-03-25T04:21:40;99638.50;;;7.77;100.00
41945;BME280;63122;52.424;13.458;2023-03-25T04:23:35;99640.97;;;7.78;100.00
41945;BME280;63122;52.424;13.458;2023-03-25T04:25:32;99643.63;;;7.87;100.00
41945;BME280;63122;52.424;13.458;2023-03-25T04:27:27;99639.03;;;7.89;100.00
41945;BME280;63122;52.424;13.458;2023-03-25T04:29:23;99638.38;;;7.87;100.00
41945;BME280;63122;52.424;13.458;2023-03-25T04:31:19;99639.03;;;7.89;100.00
41945;BME280;63122;52.424;13.458;2023-03-25T04:33:17;99644.28;;;7.89;100.00
41945;BME280;63122;52.424;13.458;2023-03-25T04:35:12;99645.44;;;7.86;100.00
41945;BME280;63122;52.424;13.458;2023-03-25T04:37:08;99638.38;;;7.87;100.00
41945;BME280;63122;52.424;13.458;2023-03-25T04:39:04;99647.22;;;7.86;100.00
41945;BME280;63122;52.424;13.458;2023-03-25T04:40:59;99645.75;;;7.83;100.00
41945;BME280;63122;52.424;13.458;2023-03-25T04:42:58;99642.63;;;7.88;100.00
41945;BME280;63122;52.424;13.458;2023-03-25T04:44:53;99637.38;;;7.88;100.00
41945;BME280;63122;52.424;13.458;2023-03-25T04:46:48;99655.09;;;7.86;100.00
41945;BME280;63122;52.424;13.458;2023-03-25T04:48:46;99645.25;;;7.88;100.00
41945;BME280;63122;52.424;13.458;2023-03-25T04:50:42;99633.94;;;7.87;100.00
41945;BME280;63122;52.424;13.458;2023-03-25T04:52:37;99629.34;;;7.89;100.00
41945;BME280;63122;52.424;13.458;2023-03-25T04:54:32;99636.41;;;7.89;100.00
41945;BME280;63122;52.424;13.458;2023-03-25T04:56:29;99626.72;;;7.89;100.00
41945;BME280;63122;52.424;13.458;2023-03-25T04:58:24;99623.13;;;7.90;100.00
41945;BME280;63122;52.424;13.458;2023-03-25T05:00:21;99628.38;;;7.90;100.00
41945;BME280;63122;52.424;13.458;2023-03-25T05:02:18;99633.78;;;7.89;100.00
41945;BME280;63122;52.424;13.458;2023-03-25T05:04:18;99634.94;;;7.86;100.00
41945;BME280;63122;52.424;13.458;2023-03-25T05:06:16;99640.50;;;7.83;100.00
41945;BME280;63122;52.424;13.458;2023-03-25T05:08:11;99630.00;;;7.83;100.00
41945;BME280;63122;52.424;13.458;2023-03-25T05:10:07;99632.31;;;7.86;100.00
41945;BME280;63122;52.424;13.458;2023-03-25T05:12:03;99620.16;;;7.85;100.00
41945;BME280;63122;52.424;13.458;2023-03-25T05:14:02;99635.91;;;7.85;100.00
41945;BME280;63122;52.424;13.458;2023-03-25T05:15:58;99628.84;;;7.86;100.00
41945;BME280;63122;52.424;13.458;2023-03-25T05:17:53;99627.38;;;7.83;100.00
41945;BME280;63122;52.424;13.458;2023-03-25T05:19:51;99636.22;;;7.82;100.00
41945;BME280;63122;52.424;13.458;2023-03-25T05:21:48;99619.50;;;7.83;100.00
41945;BME280;63122;52.424;13.458;2023-03-25T05:23:43;99628.03;;;7.85;100.00
41945;BME280;63122;52.424;13.458;2023-03-25T05:25:39;99624.25;;;7.88;100.00
41945;BME280;63122;52.424;13.458;2023-03-25T05:27:35;99619.34;;;7.93;100.00
41945;BME280;63122;52.424;13.458;2023-03-25T05:29:31;99613.28;;;7.92;100.00
41945;BME280;63122;52.424;13.458;2023-03-25T05:31:26;99613.44;;;7.91;100.00
41945;BME280;63122;52.424;13.458;2023-03-25T05:33:22;99634.94;;;7.86;100.00
41945;BME280;63122;52.424;13.458;2023-03-25T05:35:20;99618.34;;;7.94;100.00
41945;BME280;63122;52.424;13.458;2023-03-25T05:37:18;99607.84;;;7.94;100.00
41945;BME280;63122;52.424;13.458;2023-03-25T05:39:13;99618.34;;;7.94;100.00
41945;BME280;63122;52.424;13.458;2023-03-25T05:41:10;99610.78;;;7.91;100.00
41945;BME280;63122;52.424;13.458;2023-03-25T05:43:07;99620.31;;;7.92;100.00
41945;BME280;63122;52.424;13.458;2023-03-25T05:45:04;99615.59;;;7.96;100.00
41945;BME280;63122;52.424;13.458;2023-03-25T05:46:59;99620.69;;;7.97;100.00
41945;BME280;63122;52.424;13.458;2023-03-25T05:48:55;99623.47;;;7.96;100.00
41945;BME280;63122;52.424;13.458;2023-03-25T05:50:54;99628.56;;;7.97;100.00
41945;BME280;63122;52.424;13.458;2023-03-25T05:52:51;99630.69;;;8.02;100.00
41945;BME280;63122;52.424;13.458;2023-03-25T05:54:46;99638.09;;;8.06;100.00
41945;BME280;63122;52.424;13.458;2023-03-25T05:56:42;99648.28;;;8.10;100.00
41945;BME280;63122;52.424;13.458;2023-03-25T05:58:37;99648.28;;;8.10;100.00
41945;BME280;63122;52.424;13.458;2023-03-25T06:00:33;99649.13;;;8.10;100.00
41945;BME280;63122;52.424;13.458;2023-03-25T06:02:28;99638.09;;;8.06;100.00
41945;BME280;63122;52.424;13.458;2023-03-25T06:04:24;99647.78;;;8.06;100.00
41945;BME280;63122;52.424;13.458;2023-03-25T06:06:22;99649.28;;;8.09;100.00
41945;BME280;63122;52.424;13.458;2023-03-25T06:08:19;99656.50;;;8.15;100.00
41945;BME280;63122;52.424;13.458;2023-03-25T06:10:17;99647.16;;;8.12;100.00
41945;BME280;63122;52.424;13.458;2023-03-25T06:12:14;99647.81;;;8.14;100.00
41945;BME280;63122;52.424;13.458;2023-03-25T06:14:11;99655.53;;;8.16;100.00
41945;BME280;63122;52.424;13.458;2023-03-25T06:16:07;99652.75;;;8.17;100.00
41945;BME280;63122;52.424;13.458;2023-03-25T06:18:02;99668.19;;;8.20;100.00
41945;BME280;63122;52.424;13.458;2023-03-25T06:19:58;99646.97;;;8.22;100.00
41945;BME280;63122;52.424;13.458;2023-03-25T06:22:04;99662.59;;;8.24;100.00
41945;BME280;63122;52.424;13.458;2023-03-25T06:24:01;99655.69;;;8.23;100.00
41945;BME280;63122;52.424;13.458;2023-03-25T06:25:56;99659.81;;;8.25;100.00
41945;BME280;63122;52.424;13.458;2023-03-25T06:27:51;99657.84;;;8.27;100.00
41945;BME280;63122;52.424;13.458;2023-03-25T06:29:49;99663.59;;;8.31;100.00
41945;BME280;63122;52.424;13.458;2023-03-25T06:31:44;99673.94;;;8.24;100.00
41945;BME280;63122;52.424;13.458;2023-03-25T06:33:39;99665.88;;;8.26;100.00
41945;BME280;63122;52.424;13.458;2023-03-25T06:35:35;99667.53;;;8.27;100.00
41945;BME280;63122;52.424;13.458;2023-03-25T06:37:33;99663.91;;;8.19;100.00
41945;BME280;63122;52.424;13.458;2023-03-25T06:39:29;99663.59;;;8.23;100.00
41945;BME280;63122;52.424;13.458;2023-03-25T06:41:24;99663.06;;;8.19;100.00
41945;BME280;63122;52.424;13.458;2023-03-25T06:43:20;99672.59;;;8.20;100.00
41945;BME280;63122;52.424;13.458;2023-03-25T06:45:15;99661.94;;;8.21;100.00
41945;BME280;63122;52.424;13.458;2023-03-25T06:47:11;99662.47;;;8.25;100.00
41945;BME280;63122;52.424;13.458;2023-03-25T06:49:06;99655.22;;;8.27;100.00
41945;BME280;63122;52.424;13.458;2023-03-25T06:51:01;99666.41;;;8.29;100.00
41945;BME280;63122;52.424;13.458;2023-03-25T06:52:59;99673.97;;;8.32;100.00
41945;BME280;63122;52.424;13.458;2023-03-25T06:54:55;99661.31;;;8.36;100.00
41945;BME280;63122;52.424;13.458;2023-03-25T06:56:50;99658.66;;;8.36;100.00
41945;BME280;63122;52.424;13.458;2023-03-25T06:58:45;99658.38;;;8.39;100.00
41945;BME280;63122;52.424;13.458;2023-03-25T07:00:40;99649.31;;;8.42;100.00
41945;BME280;63122;52.424;13.458;2023-03-25T07:02:37;99640.31;;;8.44;100.00
41945;BME280;63122;52.424;13.458;2023-03-25T07:04:32;99648.66;;;8.48;100.00
41945;BME280;63122;52.424;13.458;2023-03-25T07:06:28;99651.81;;;8.43;100.00
41945;BME280;63122;52.424;13.458;2023-03-25T07:08:25;99650.63;;;8.46;100.00
41945;BME280;63122;52.424;13.458;2023-03-25T07:10:21;99657.88;;;8.44;100.00
41945;BME280;63122;52.424;13.458;2023-03-25T07:12:16;99662.31;;;8.43;100.00
41945;BME280;63122;52.424;13.458;2023-03-25T07:14:11;99661.81;;;8.48;100.00
41945;BME280;63122;52.424;13.458;2023-03-25T07:16:08;99659.88;;;8.50;100.00
41945;BME280;63122;52.424;13.458;2023-03-25T07:18:06;99661.38;;;8.53;100.00
41945;BME280;63122;52.424;13.458;2023-03-25T07:20:01;99661.53;;;8.59;100.00
41945;BME280;63122;52.424;13.458;2023-03-25T07:21:56;99669.75;;;8.64;100.00
41945;BME280;63122;52.424;13.458;2023-03-25T07:23:54;99671.06;;;8.69;100.00
41945;BME280;63122;52.424;13.458;2023-03-25T07:25:50;99669.91;;;8.63;100.00
41945;BME280;63122;52.424;13.458;2023-03-25T07:27:45;99673.56;;;8.70;100.00
41945;BME280;63122;52.424;13.458;2023-03-25T07:29:40;99680.59;;;8.70;100.00
41945;BME280;63122;52.424;13.458;2023-03-25T07:31:36;99678.63;;;8.72;100.00
41945;BME280;63122;52.424;13.458;2023-03-25T07:33:32;99676.31;;;8.77;100.00
41945;BME280;63122;52.424;13.458;2023-03-25T07:35:28;99669.94;;;8.79;100.00
41945;BME280;63122;52.424;13.458;2023-03-25T07:37:24;99673.06;;;8.83;100.00
41945;BME280;63122;52.424;13.458;2023-03-25T07:39:22;99692.13;;;8.85;100.00
41945;BME280;63122;52.424;13.458;2023-03-25T07:41:17;99694.56;;;8.87;100.00
41945;BME280;63122;52.424;13.458;2023-03-25T07:43:13;99676.84;;;8.97;100.00
41945;BME280;63122;52.424;13.458;2023-03-25T07:45:09;99670.06;;;9.03;100.00
41945;BME280;63122;52.424;13.458;2023-03-25T07:47:04;99686.34;;;9.15;100.00
41945;BME280;63122;52.424;13.458;2023-03-25T07:48:59;99687.00;;;9.08;100.00
41945;BME280;63122;52.424;13.458;2023-03-25T07:50:55;99678.63;;;9.13;100.00
41945;BME280;63122;52.424;13.458;2023-03-25T07:52:50;99674.81;;;9.32;100.00
41945;BME280;63122;52.424;13.458;2023-03-25T07:54:48;99671.00;;;9.43;100.00
41945;BME280;63122;52.424;13.458;2023-03-25T07:56:43;99666.56;;;9.52;100.00
41945;BME280;63122;52.424;13.458;2023-03-25T07:58:38;99690.03;;;9.62;100.00
41945;BME280;63122;52.424;13.458;2023-03-25T08:00:35;99679.69;;;9.60;100.00
41945;BME280;63122;52.424;13.458;2023-03-25T08:02:31;99665.53;;;9.61;100.00
41945;BME280;63122;52.424;13.458;2023-03-25T08:04:27;99687.44;;;9.54;100.00
41945;BME280;63122;52.424;13.458;2023-03-25T08:06:22;99674.91;;;9.56;100.00
41945;BME280;63122;52.424;13.458;2023-03-25T08:08:18;99668.66;;;9.57;100.00
41945;BME280;63122;52.424;13.458;2023-03-25T08:10:17;99667.00;;;9.56;100.00
41945;BME280;63122;52.424;13.458;2023-03-25T08:12:13;99687.59;;;9.60;100.00
41945;BME280;63122;52.424;13.458;2023-03-25T08:14:08;99670.28;;;9.66;100.00
41945;BME280;63122;52.424;13.458;2023-03-25T08:16:09;99667.91;;;9.79;100.00
41945;BME280;63122;52.424;13.458;2023-03-25T08:18:05;99667.22;;;9.86;100.00
41945;BME280;63122;52.424;13.458;2023-03-25T08:20:00;99667.72;;;9.89;100.00
41945;BME280;63122;52.424;13.458;2023-03-25T08:21:56;99668.84;;;9.95;100.00
41945;BME280;63122;52.424;13.458;2023-03-25T08:23:52;99656.03;;;9.92;100.00
41945;BME280;63122;52.424;13.458;2023-03-25T08:25:53;99675.56;;;9.98;100.00
41945;BME280;63122;52.424;13.458;2023-03-25T08:27:48;99660.41;;;10.00;100.00
41945;BME280;63122;52.424;13.458;2023-03-25T08:29:44;99667.50;;;9.99;100.00
41945;BME280;63122;52.424;13.458;2023-03-25T08:31:48;99668.81;;;10.03;100.00
41945;BME280;63122;52.424;13.458;2023-03-25T08:33:44;99674.06;;;10.03;100.00
41945;BME280;63122;52.424;13.458;2023-03-25T08:35:39;99673.25;;;10.03;100.00
41945;BME280;63122;52.424;13.458;2023-03-25T08:37:34;99672.75;;;10.07;100.00
41945;BME280;63122;52.424;13.458;2023-03-25T08:39:30;99672.03;;;10.14;100.00
41945;BME280;63122;52.424;13.458;2023-03-25T08:41:33;99665.09;;;10.21;100.00
41945;BME280;63122;52.424;13.458;2023-03-25T08:43:30;99666.75;;;10.22;100.00
41945;BME280;63122;52.424;13.458;2023-03-25T08:45:25;99680.91;;;10.21;100.00
41945;BME280;63122;52.424;13.458;2023-03-25T08:47:23;99665.13;;;10.13;100.00
41945;BME280;63122;52.424;13.458;2023-03-25T08:49:18;99666.25;;;10.18;100.00
41945;BME280;63122;52.424;13.458;2023-03-25T08:51:13;99659.63;;;10.22;100.00
41945;BME280;63122;52.424;13.458;2023-03-25T08:53:09;99655.06;;;10.16;100.00
41945;BME280;63122;52.424;13.458;2023-03-25T08:55:05;99671.03;;;10.23;100.00
41945;BME280;63122;52.424;13.458;2023-03-25T08:57:06;99676.28;;;10.23;100.00
41945;BME280;63122;52.424;13.458;2023-03-25T08:59:01;99677.94;;;10.24;100.00
41945;BME280;63122;52.424;13.458;2023-03-25T09:00:56;99653.72;;;10.20;100.00
41945;BME280;63122;52.424;13.458;2023-03-25T09:02:52;99671.66;;;10.25;100.00
41945;BME280;63122;52.424;13.458;2023-03-25T09:04:48;99667.69;;;10.29;100.00
41945;BME280;63122;52.424;13.458;2023-03-25T09:06:44;99670.59;;;10.11;100.00
41945;BME280;63122;52.424;13.458;2023-03-25T09:09:00;99670.53;;;10.19;100.00
41945;BME280;63122;52.424;13.458;2023-03-25T09:10:56;99660.69;;;10.13;100.00
41945;BME280;63122;52.424;13.458;2023-03-25T09:12:54;99649.81;;;10.16;100.00
41945;BME280;63122;52.424;13.458;2023-03-25T09:14:50;99671.88;;;10.15;100.00
41945;BME280;63122;52.424;13.458;2023-03-25T09:16:45;99669.88;;;10.17;100.00
41945;BME280;63122;52.424;13.458;2023-03-25T09:18:40;99655.00;;;10.25;100.00
41945;BME280;63122;52.424;13.458;2023-03-25T09:20:35;99661.28;;;10.23;100.00
41945;BME280;63122;52.424;13.458;2023-03-25T09:22:31;99658.28;;;10.27;100.00
41945;BME280;63122;52.424;13.458;2023-03-25T09:24:26;99664.09;;;10.22;100.00
41945;BME280;63122;52.424;13.458;2023-03-25T09:26:25;99686.69;;;10.16;100.00
41945;BME280;63122;52.424;13.458;2023-03-25T09:28:23;99667.59;;;10.14;100.00
41945;BME280;63122;52.424;13.458;2023-03-25T09:30:18;99677.31;;;10.14;100.00
41945;BME280;63122;52.424;13.458;2023-03-25T09:32:13;99676.00;;;10.09;100.00
41945;BME280;63122;52.424;13.458;2023-03-25T09:34:10;99669.59;;;10.12;100.00
41945;BME280;63122;52.424;13.458;2023-03-25T09:36:07;99680.78;;;10.14;100.00
41945;BME280;63122;52.424;13.458;2023-03-25T09:38:03;99671.69;;;10.17;100.00
41945;BME280;63122;52.424;13.458;2023-03-25T09:39:58;99687.81;;;10.22;100.00
41945;BME280;63122;52.424;13.458;2023-03-25T09:42:03;99669.69;;;10.19;100.00
41945;BME280;63122;52.424;13.458;2023-03-25T09:44:13;99666.75;;;10.22;100.00
41945;BME280;63122;52.424;13.458;2023-03-25T09:46:10;99676.59;;;10.28;100.00
41945;BME280;63122;52.424;13.458;2023-03-25T09:48:15;99663.75;;;10.25;100.00
41945;BME280;63122;52.424;13.458;2023-03-25T09:50:15;99675.75;;;10.28;100.00
41945;BME280;63122;52.424;13.458;2023-03-25T09:52:15;99678.22;;;10.29;100.00
41945;BME280;63122;52.424;13.458;2023-03-25T09:54:18;99677.16;;;10.38;100.00
41945;BME280;63122;52.424;13.458;2023-03-25T09:56:17;99672.41;;;10.42;100.00
41945;BME280;63122;52.424;13.458;2023-03-25T09:58:24;99662.16;;;10.47;100.00
41945;BME280;63122;52.424;13.458;2023-03-25T10:00:24;99677.16;;;10.70;100.00
41945;BME280;63122;52.424;13.458;2023-03-25T10:02:30;99669.53;;;10.75;100.00
41945;BME280;63122;52.424;13.458;2023-03-25T10:04:53;99692.63;;;10.73;100.00
41945;BME280;63122;52.424;13.458;2023-03-25T10:06:57;99679.09;;;10.53;100.00
41945;BME280;63122;52.424;13.458;2023-03-25T10:09:03;99674.88;;;10.67;100.00
41945;BME280;63122;52.424;13.458;2023-03-25T10:11:06;99679.09;;;10.53;100.00
41945;BME280;63122;52.424;13.458;2023-03-25T10:13:06;99657.06;;;10.69;100.00
41945;BME280;63122;52.424;13.458;2023-03-25T10:15:16;99678.78;;;10.94;100.00
41945;BME280;63122;52.424;13.458;2023-03-25T10:17:25;99659.16;;;10.74;100.00
41945;BME280;63122;52.424;13.458;2023-03-25T10:19:33;99652.53;;;10.78;100.00
41945;BME280;63122;52.424;13.458;2023-03-25T10:21:38;99647.00;;;10.88;100.00
41945;BME280;63122;52.424;13.458;2023-03-25T10:23:37;99652.47;;;10.86;100.00
41945;BME280;63122;52.424;13.458;2023-03-25T10:25:38;99658.75;;;10.85;100.00